createdAt,value
2017-04-02T00:01:11.389Z,1004.4
2017-04-02T00:11:21.078Z,1004.5
2017-04-02T00:21:31.563Z,1004.5
2017-04-02T00:31:42.052Z,1004.4
2017-04-02T00:41:52.517Z,1004.6
2017-04-02T00:52:02.997Z,1004.8
2017-04-02T01:02:13.480Z,1004.9
2017-04-02T01:12:23.975Z,1004.8
2017-04-02T01:22:34.461Z,1004.9
2017-04-02T01:32:44.999Z,1004.9
2017-04-02T01:42:55.557Z,1005
2017-04-02T01:53:06.104Z,1005
2017-04-02T02:03:16.589Z,1005.1
2017-04-02T02:13:27.088Z,1005.1
2017-04-02T02:23:37.579Z,1005.2
2017-04-02T02:33:48.068Z,1005.3
2017-04-02T02:43:58.544Z,1005.5
2017-04-02T02:54:09.035Z,1005.5
2017-04-02T03:04:19.493Z,1005.5
2017-04-02T03:14:30.046Z,1005.6
2017-04-02T03:24:40.552Z,1005.8
2017-04-02T03:34:51.027Z,1005.7
2017-04-02T03:45:01.555Z,1005.8
2017-04-02T03:55:12.047Z,1005.8
2017-04-02T04:05:22.592Z,1006
2017-04-02T04:15:33.144Z,1005.9
2017-04-02T04:25:43.760Z,1006.1
2017-04-02T04:35:54.347Z,1006.3
2017-04-02T04:46:04.866Z,1006.3
2017-04-02T04:56:15.450Z,1006.4
2017-04-02T05:06:26.013Z,1006.7
2017-04-02T05:16:36.533Z,1006.8
2017-04-02T05:26:47.124Z,1007
2017-04-02T05:36:57.678Z,1007
2017-04-02T05:47:08.227Z,1007.1
2017-04-02T05:57:18.758Z,1007.2
2017-04-02T06:07:29.324Z,1007.3
2017-04-02T06:17:39.837Z,1007.5
2017-04-02T06:27:50.341Z,1007.6
2017-04-02T06:38:00.795Z,1007.8
2017-04-02T06:48:11.112Z,1008
2017-04-02T06:58:21.217Z,1008.1
2017-04-02T07:18:40.727Z,1008.3
2017-04-02T07:28:50.244Z,1008.3
2017-04-02T07:38:59.596Z,1008.4
2017-04-02T07:49:08.861Z,1008.6
2017-04-02T07:59:17.995Z,1008.7
2017-04-02T08:09:26.927Z,1008.9
2017-04-02T08:19:35.651Z,1009
2017-04-02T08:29:44.397Z,1009.2
2017-04-02T08:39:53.127Z,1009.3
2017-04-02T08:50:01.719Z,1009.5
2017-04-02T09:00:10.131Z,1009.5
2017-04-02T09:10:18.552Z,1009.7
2017-04-02T09:20:27.419Z,1009.7
2017-04-02T09:30:36.682Z,1009.8
2017-04-02T09:40:45.845Z,1010.1
2017-04-02T09:50:54.529Z,1010
2017-04-02T10:11:11.881Z,1010.2
2017-04-02T10:21:20.430Z,1010.3
2017-04-02T10:31:28.757Z,1010.2
2017-04-02T10:41:37.172Z,1010.3
2017-04-02T10:51:45.456Z,1011.2
2017-04-02T11:01:53.597Z,1010
2017-04-02T11:12:01.904Z,1010.1
2017-04-02T11:22:10.451Z,1010.3
2017-04-02T11:32:19.241Z,1011.3
2017-04-02T11:42:28.002Z,1010.2
2017-04-02T11:52:36.696Z,1010.3
2017-04-02T12:02:45.055Z,1010.4
2017-04-02T12:12:53.144Z,1010.3
2017-04-02T12:23:01.176Z,1010.5
2017-04-02T12:33:09.232Z,1010.3
2017-04-02T12:43:17.386Z,1010.5
2017-04-02T12:53:25.533Z,1010.6
2017-04-02T13:03:33.729Z,1010.5
2017-04-02T13:13:41.822Z,1010.4
2017-04-02T13:23:49.764Z,1010.4
2017-04-02T13:33:57.977Z,1010.4
2017-04-02T13:44:06.596Z,1010.7
2017-04-02T13:54:15.363Z,1010.5
2017-04-02T14:04:24.235Z,1010.6
2017-04-02T14:14:33.148Z,1010.7
2017-04-02T14:24:41.701Z,1010.7
2017-04-02T14:34:49.904Z,1010.8
2017-04-02T14:44:58.007Z,1010.8
2017-04-02T14:55:06.091Z,1010.9
2017-04-02T15:05:14.303Z,1010.8
2017-04-02T15:15:22.657Z,1010.8
2017-04-02T15:25:31.072Z,1011
2017-04-02T15:35:39.717Z,1011.3
2017-04-02T15:45:48.312Z,1011
2017-04-02T15:55:57.146Z,1011.1
2017-04-02T16:06:06.199Z,1011
2017-04-02T16:16:15.521Z,1011.2
2017-04-02T16:26:24.972Z,1011.2
2017-04-02T16:36:34.458Z,1011.1
2017-04-02T16:46:43.936Z,1011.3
2017-04-02T16:56:53.317Z,1011.4
2017-04-02T17:07:02.645Z,1011.5
2017-04-02T17:17:12.068Z,1011.7
2017-04-02T17:27:21.641Z,1011.7
2017-04-02T17:37:31.417Z,1011.7
2017-04-02T17:47:41.293Z,1011.9
2017-04-02T17:57:51.254Z,1012.1
2017-04-02T18:08:01.274Z,1012.2
2017-04-02T18:18:11.432Z,1012.3
2017-04-02T18:28:21.613Z,1012.4
2017-04-02T18:38:31.833Z,1012.5
2017-04-02T18:48:42.092Z,1012.7
2017-04-02T18:58:52.322Z,1012.8
2017-04-02T19:09:02.557Z,1012.8
2017-04-02T19:19:12.775Z,1013.1
2017-04-02T19:29:23.031Z,1013.3
2017-04-02T19:39:33.321Z,1013.5
2017-04-02T19:49:43.634Z,1013.5
2017-04-02T19:59:53.975Z,1013.5
2017-04-02T20:10:04.383Z,1013.5
2017-04-02T20:20:14.827Z,1013.7
2017-04-02T20:30:25.283Z,1013.8
2017-04-02T20:40:35.749Z,1014
2017-04-02T20:50:46.246Z,1014.1
2017-04-02T21:00:56.854Z,1014.1
2017-04-02T21:11:07.467Z,1014.2
2017-04-02T21:21:18.121Z,1014.3
2017-04-02T21:31:28.806Z,1014.5
2017-04-02T21:41:39.539Z,1014.5
2017-04-02T21:51:50.189Z,1014.7
2017-04-02T22:02:00.973Z,1014.8
2017-04-02T22:12:11.805Z,1014.9
2017-04-02T22:22:22.713Z,1014.9
2017-04-02T22:32:33.633Z,1014.9
2017-04-02T22:42:44.554Z,1015.1
2017-04-02T22:52:55.494Z,1015.1
2017-04-02T23:03:06.484Z,1015.1
2017-04-02T23:13:17.500Z,1015
2017-04-02T23:23:28.494Z,1015.2
2017-04-02T23:33:39.415Z,1015.3
2017-04-02T23:43:50.302Z,1015.4
2017-04-02T23:54:01.195Z,1015.4
